sensor_id;sensor_type;location;lat;lon;timestamp;P1;durP1;ratioP1;P2;durP2;ratioP2
39772;SDS011;25451;51.960;6.250;2022-11-23T00:01:34;4.00;;;1.63;;
39772;SDS011;25451;51.960;6.250;2022-11-23T00:04:02;3.53;;;1.47;;
39772;SDS011;25451;51.960;6.250;2022-11-23T00:06:29;4.05;;;1.73;;
39772;SDS011;25451;51.960;6.250;2022-11-23T00:08:54;4.10;;;1.60;;
39772;SDS011;25451;51.960;6.250;2022-11-23T00:11:20;4.77;;;1.80;;
39772;SDS011;25451;51.960;6.250;2022-11-23T00:13:47;10.95;;;1.80;;
39772;SDS011;25451;51.960;6.250;2022-11-23T00:16:13;5.40;;;1.90;;
39772;SDS011;25451;51.960;6.250;2022-11-23T00:18:40;5.13;;;1.77;;
39772;SDS011;25451;51.960;6.250;2022-11-23T00:21:10;3.90;;;1.90;;
39772;SDS011;25451;51.960;6.250;2022-11-23T00:23:40;3.83;;;1.70;;
39772;SDS011;25451;51.960;6.250;2022-11-23T00:26:05;4.65;;;1.90;;
39772;SDS011;25451;51.960;6.250;2022-11-23T00:28:31;6.85;;;2.30;;
39772;SDS011;25451;51.960;6.250;2022-11-23T00:30:56;5.93;;;2.20;;
39772;SDS011;25451;51.960;6.250;2022-11-23T00:33:22;5.38;;;1.98;;
39772;SDS011;25451;51.960;6.250;2022-11-23T00:35:57;6.33;;;2.27;;
39772;SDS011;25451;51.960;6.250;2022-11-23T00:38:22;5.55;;;2.20;;
39772;SDS011;25451;51.960;6.250;2022-11-23T00:40:48;7.80;;;2.50;;
39772;SDS011;25451;51.960;6.250;2022-11-23T00:43:13;4.83;;;2.33;;
39772;SDS011;25451;51.960;6.250;2022-11-23T00:45:38;4.93;;;2.20;;
39772;SDS011;25451;51.960;6.250;2022-11-23T00:48:04;5.37;;;2.37;;
39772;SDS011;25451;51.960;6.250;2022-11-23T00:50:29;6.93;;;2.50;;
39772;SDS011;25451;51.960;6.250;2022-11-23T00:52:55;3.90;;;2.27;;
39772;SDS011;25451;51.960;6.250;2022-11-23T00:55:20;7.10;;;2.40;;
39772;SDS011;25451;51.960;6.250;2022-11-23T00:57:45;6.93;;;2.43;;
39772;SDS011;25451;51.960;6.250;2022-11-23T01:00:11;6.47;;;2.53;;
39772;SDS011;25451;51.960;6.250;2022-11-23T01:02:36;7.23;;;2.80;;
39772;SDS011;25451;51.960;6.250;2022-11-23T01:05:03;6.97;;;2.67;;
39772;SDS011;25451;51.960;6.250;2022-11-23T01:07:28;7.15;;;2.85;;
39772;SDS011;25451;51.960;6.250;2022-11-23T01:09:57;8.13;;;3.05;;
39772;SDS011;25451;51.960;6.250;2022-11-23T01:12:22;7.63;;;2.70;;
39772;SDS011;25451;51.960;6.250;2022-11-23T01:14:48;8.20;;;3.03;;
39772;SDS011;25451;51.960;6.250;2022-11-23T01:17:13;5.57;;;2.50;;
39772;SDS011;25451;51.960;6.250;2022-11-23T01:19:38;5.00;;;2.90;;
39772;SDS011;25451;51.960;6.250;2022-11-23T01:22:04;8.23;;;2.72;;
39772;SDS011;25451;51.960;6.250;2022-11-23T01:24:29;8.50;;;3.10;;
39772;SDS011;25451;51.960;6.250;2022-11-23T01:26:54;9.17;;;3.57;;
39772;SDS011;25451;51.960;6.250;2022-11-23T01:29:20;8.23;;;3.20;;
39772;SDS011;25451;51.960;6.250;2022-11-23T01:31:46;6.68;;;3.10;;
39772;SDS011;25451;51.960;6.250;2022-11-23T01:34:11;7.17;;;3.20;;
39772;SDS011;25451;51.960;6.250;2022-11-23T01:36:38;7.57;;;3.65;;
39772;SDS011;25451;51.960;6.250;2022-11-23T01:39:04;9.30;;;3.15;;
39772;SDS011;25451;51.960;6.250;2022-11-23T01:41:32;9.95;;;3.45;;
39772;SDS011;25451;51.960;6.250;2022-11-23T01:44:00;8.10;;;3.33;;
39772;SDS011;25451;51.960;6.250;2022-11-23T01:46:25;9.43;;;3.50;;
39772;SDS011;25451;51.960;6.250;2022-11-23T01:51:22;11.90;;;2.97;;
39772;SDS011;25451;51.960;6.250;2022-11-23T01:53:51;9.30;;;3.13;;
39772;SDS011;25451;51.960;6.250;2022-11-23T01:56:22;7.38;;;3.17;;
39772;SDS011;25451;51.960;6.250;2022-11-23T01:58:52;7.00;;;3.00;;
39772;SDS011;25451;51.960;6.250;2022-11-23T02:01:20;10.32;;;3.35;;
39772;SDS011;25451;51.960;6.250;2022-11-23T02:03:46;6.87;;;2.70;;
39772;SDS011;25451;51.960;6.250;2022-11-23T02:06:14;10.43;;;3.28;;
39772;SDS011;25451;51.960;6.250;2022-11-23T02:08:42;8.40;;;2.90;;
39772;SDS011;25451;51.960;6.250;2022-11-23T02:11:08;8.77;;;2.75;;
39772;SDS011;25451;51.960;6.250;2022-11-23T02:13:36;8.80;;;2.97;;
39772;SDS011;25451;51.960;6.250;2022-11-23T02:16:02;7.68;;;2.65;;
39772;SDS011;25451;51.960;6.250;2022-11-23T02:18:28;7.40;;;2.80;;
39772;SDS011;25451;51.960;6.250;2022-11-23T02:20:56;10.32;;;2.95;;
39772;SDS011;25451;51.960;6.250;2022-11-23T02:26:24;7.35;;;2.30;;
39772;SDS011;25451;51.960;6.250;2022-11-23T02:28:53;7.60;;;2.58;;
39772;SDS011;25451;51.960;6.250;2022-11-23T02:31:40;4.68;;;2.10;;
39772;SDS011;25451;51.960;6.250;2022-11-23T02:34:05;5.05;;;1.95;;
39772;SDS011;25451;51.960;6.250;2022-11-23T02:36:41;7.60;;;2.20;;
39772;SDS011;25451;51.960;6.250;2022-11-23T02:39:11;6.53;;;2.00;;
39772;SDS011;25451;51.960;6.250;2022-11-23T02:41:40;5.43;;;1.80;;
39772;SDS011;25451;51.960;6.250;2022-11-23T02:44:11;7.03;;;1.80;;
39772;SDS011;25451;51.960;6.250;2022-11-23T02:46:56;5.68;;;1.77;;
39772;SDS011;25451;51.960;6.250;2022-11-23T02:49:22;5.00;;;1.65;;
39772;SDS011;25451;51.960;6.250;2022-11-23T02:51:48;5.13;;;1.77;;
39772;SDS011;25451;51.960;6.250;2022-11-23T02:54:13;8.38;;;1.80;;
39772;SDS011;25451;51.960;6.250;2022-11-23T02:56:38;6.55;;;1.70;;
39772;SDS011;25451;51.960;6.250;2022-11-23T02:59:04;8.53;;;2.00;;
39772;SDS011;25451;51.960;6.250;2022-11-23T03:01:29;9.60;;;2.07;;
39772;SDS011;25451;51.960;6.250;2022-11-23T03:03:54;8.00;;;1.70;;
39772;SDS011;25451;51.960;6.250;2022-11-23T03:06:20;7.03;;;1.80;;
39772;SDS011;25451;51.960;6.250;2022-11-23T03:08:45;6.17;;;1.63;;
39772;SDS011;25451;51.960;6.250;2022-11-23T03:11:10;7.03;;;1.90;;
39772;SDS011;25451;51.960;6.250;2022-11-23T03:13:36;3.80;;;1.60;;
39772;SDS011;25451;51.960;6.250;2022-11-23T03:16:01;7.07;;;1.40;;
39772;SDS011;25451;51.960;6.250;2022-11-23T03:18:26;5.55;;;1.30;;
39772;SDS011;25451;51.960;6.250;2022-11-23T03:20:52;5.67;;;1.60;;
39772;SDS011;25451;51.960;6.250;2022-11-23T03:23:17;4.50;;;1.30;;
39772;SDS011;25451;51.960;6.250;2022-11-23T03:25:42;6.57;;;1.57;;
39772;SDS011;25451;51.960;6.250;2022-11-23T03:28:07;6.20;;;1.70;;
39772;SDS011;25451;51.960;6.250;2022-11-23T03:30:33;8.20;;;1.70;;
39772;SDS011;25451;51.960;6.250;2022-11-23T03:32:58;8.33;;;1.57;;
39772;SDS011;25451;51.960;6.250;2022-11-23T03:35:23;5.60;;;1.40;;
39772;SDS011;25451;51.960;6.250;2022-11-23T03:37:49;6.27;;;1.30;;
39772;SDS011;25451;51.960;6.250;2022-11-23T03:40:14;4.20;;;1.30;;
39772;SDS011;25451;51.960;6.250;2022-11-23T03:42:40;4.88;;;1.30;;
39772;SDS011;25451;51.960;6.250;2022-11-23T03:45:06;5.70;;;1.50;;
39772;SDS011;25451;51.960;6.250;2022-11-23T03:47:33;6.43;;;1.48;;
39772;SDS011;25451;51.960;6.250;2022-11-23T03:49:58;7.35;;;1.30;;
39772;SDS011;25451;51.960;6.250;2022-11-23T03:52:24;7.00;;;1.40;;
39772;SDS011;25451;51.960;6.250;2022-11-23T03:54:49;6.37;;;1.57;;
39772;SDS011;25451;51.960;6.250;2022-11-23T03:57:14;7.70;;;1.43;;
39772;SDS011;25451;51.960;6.250;2022-11-23T03:59:40;5.87;;;1.20;;
39772;SDS011;25451;51.960;6.250;2022-11-23T04:02:05;7.55;;;1.80;;
39772;SDS011;25451;51.960;6.250;2022-11-23T04:04:32;5.80;;;1.60;;
39772;SDS011;25451;51.960;6.250;2022-11-23T04:06:57;3.72;;;1.10;;
39772;SDS011;25451;51.960;6.250;2022-11-23T04:09:23;7.40;;;1.43;;
39772;SDS011;25451;51.960;6.250;2022-11-23T04:12:08;6.18;;;1.55;;
39772;SDS011;25451;51.960;6.250;2022-11-23T04:14:34;6.15;;;1.48;;
39772;SDS011;25451;51.960;6.250;2022-11-23T04:17:00;9.23;;;1.70;;
39772;SDS011;25451;51.960;6.250;2022-11-23T04:19:28;7.93;;;2.00;;
39772;SDS011;25451;51.960;6.250;2022-11-23T04:21:53;7.20;;;1.53;;
39772;SDS011;25451;51.960;6.250;2022-11-23T04:24:19;5.20;;;1.58;;
39772;SDS011;25451;51.960;6.250;2022-11-23T04:26:45;9.37;;;1.77;;
39772;SDS011;25451;51.960;6.250;2022-11-23T04:29:10;5.40;;;1.50;;
39772;SDS011;25451;51.960;6.250;2022-11-23T04:31:35;9.43;;;1.70;;
39772;SDS011;25451;51.960;6.250;2022-11-23T04:34:01;7.17;;;1.70;;
39772;SDS011;25451;51.960;6.250;2022-11-23T04:36:26;5.30;;;1.70;;
39772;SDS011;25451;51.960;6.250;2022-11-23T04:38:51;11.80;;;1.93;;
39772;SDS011;25451;51.960;6.250;2022-11-23T04:41:17;6.73;;;1.63;;
39772;SDS011;25451;51.960;6.250;2022-11-23T04:43:42;5.60;;;1.60;;
39772;SDS011;25451;51.960;6.250;2022-11-23T04:46:08;7.93;;;1.70;;
39772;SDS011;25451;51.960;6.250;2022-11-23T04:48:34;5.53;;;1.43;;
39772;SDS011;25451;51.960;6.250;2022-11-23T04:51:00;11.63;;;1.73;;
39772;SDS011;25451;51.960;6.250;2022-11-23T04:53:25;7.30;;;1.80;;
39772;SDS011;25451;51.960;6.250;2022-11-23T04:55:50;5.38;;;1.52;;
39772;SDS011;25451;51.960;6.250;2022-11-23T04:58:16;6.87;;;1.60;;
39772;SDS011;25451;51.960;6.250;2022-11-23T05:00:41;7.10;;;1.60;;
39772;SDS011;25451;51.960;6.250;2022-11-23T05:03:06;6.37;;;1.50;;
39772;SDS011;25451;51.960;6.250;2022-11-23T05:05:31;6.67;;;1.80;;
39772;SDS011;25451;51.960;6.250;2022-11-23T05:07:57;5.97;;;1.70;;
39772;SDS011;25451;51.960;6.250;2022-11-23T05:10:23;6.07;;;1.45;;
39772;SDS011;25451;51.960;6.250;2022-11-23T05:12:49;3.43;;;1.30;;
39772;SDS011;25451;51.960;6.250;2022-11-23T05:15:14;7.40;;;1.70;;
39772;SDS011;25451;51.960;6.250;2022-11-23T05:17:39;8.07;;;1.70;;
39772;SDS011;25451;51.960;6.250;2022-11-23T05:20:05;6.40;;;1.58;;
39772;SDS011;25451;51.960;6.250;2022-11-23T05:22:31;7.03;;;1.50;;
39772;SDS011;25451;51.960;6.250;2022-11-23T05:24:57;6.53;;;1.65;;
39772;SDS011;25451;51.960;6.250;2022-11-23T05:27:22;7.43;;;1.60;;
39772;SDS011;25451;51.960;6.250;2022-11-23T05:29:47;7.53;;;1.77;;
39772;SDS011;25451;51.960;6.250;2022-11-23T05:32:13;8.43;;;1.73;;
39772;SDS011;25451;51.960;6.250;2022-11-23T05:34:38;7.30;;;1.70;;
39772;SDS011;25451;51.960;6.250;2022-11-23T05:37:03;6.03;;;1.53;;
39772;SDS011;25451;51.960;6.250;2022-11-23T05:39:29;8.32;;;1.85;;
39772;SDS011;25451;51.960;6.250;2022-11-23T05:41:54;8.07;;;2.10;;
39772;SDS011;25451;51.960;6.250;2022-11-23T05:44:19;7.70;;;1.67;;
39772;SDS011;25451;51.960;6.250;2022-11-23T05:46:45;6.37;;;1.53;;
39772;SDS011;25451;51.960;6.250;2022-11-23T05:49:10;6.40;;;1.47;;
39772;SDS011;25451;51.960;6.250;2022-11-23T05:51:35;9.80;;;1.70;;
39772;SDS011;25451;51.960;6.250;2022-11-23T05:54:01;7.47;;;1.77;;
39772;SDS011;25451;51.960;6.250;2022-11-23T05:56:26;4.43;;;1.42;;
39772;SDS011;25451;51.960;6.250;2022-11-23T05:58:53;7.90;;;1.80;;
39772;SDS011;25451;51.960;6.250;2022-11-23T06:01:20;5.90;;;1.87;;
39772;SDS011;25451;51.960;6.250;2022-11-23T06:03:45;11.00;;;1.63;;
39772;SDS011;25451;51.960;6.250;2022-11-23T06:06:10;7.95;;;1.65;;
39772;SDS011;25451;51.960;6.250;2022-11-23T06:08:35;8.57;;;1.65;;
39772;SDS011;25451;51.960;6.250;2022-11-23T06:11:01;10.17;;;1.60;;
39772;SDS011;25451;51.960;6.250;2022-11-23T06:13:26;7.77;;;1.67;;
39772;SDS011;25451;51.960;6.250;2022-11-23T06:15:51;9.90;;;2.20;;
39772;SDS011;25451;51.960;6.250;2022-11-23T06:18:17;12.30;;;2.10;;
39772;SDS011;25451;51.960;6.250;2022-11-23T06:20:42;6.27;;;1.40;;
39772;SDS011;25451;51.960;6.250;2022-11-23T06:23:07;7.23;;;1.90;;
39772;SDS011;25451;51.960;6.250;2022-11-23T06:25:33;9.60;;;1.60;;
39772;SDS011;25451;51.960;6.250;2022-11-23T06:27:58;12.67;;;1.80;;
39772;SDS011;25451;51.960;6.250;2022-11-23T06:30:25;9.85;;;1.73;;
39772;SDS011;25451;51.960;6.250;2022-11-23T06:32:52;5.80;;;1.48;;
39772;SDS011;25451;51.960;6.250;2022-11-23T06:35:18;7.40;;;1.50;;
39772;SDS011;25451;51.960;6.250;2022-11-23T06:37:44;7.32;;;1.60;;
39772;SDS011;25451;51.960;6.250;2022-11-23T06:40:11;10.23;;;1.70;;
39772;SDS011;25451;51.960;6.250;2022-11-23T06:42:37;9.17;;;1.60;;
39772;SDS011;25451;51.960;6.250;2022-11-23T06:45:02;8.90;;;1.60;;
39772;SDS011;25451;51.960;6.250;2022-11-23T06:47:28;7.97;;;1.60;;
39772;SDS011;25451;51.960;6.250;2022-11-23T06:49:53;7.20;;;1.40;;
39772;SDS011;25451;51.960;6.250;2022-11-23T06:52:18;5.97;;;1.50;;
39772;SDS011;25451;51.960;6.250;2022-11-23T06:54:44;7.57;;;1.77;;
39772;SDS011;25451;51.960;6.250;2022-11-23T06:57:10;6.28;;;1.60;;
39772;SDS011;25451;51.960;6.250;2022-11-23T06:59:35;5.07;;;1.23;;
39772;SDS011;25451;51.960;6.250;2022-11-23T07:02:01;7.67;;;1.50;;
39772;SDS011;25451;51.960;6.250;2022-11-23T07:04:26;7.57;;;1.30;;
39772;SDS011;25451;51.960;6.250;2022-11-23T07:06:51;6.60;;;1.50;;
39772;SDS011;25451;51.960;6.250;2022-11-23T07:09:16;8.50;;;1.48;;
39772;SDS011;25451;51.960;6.250;2022-11-23T07:11:42;7.30;;;1.38;;
39772;SDS011;25451;51.960;6.250;2022-11-23T07:14:07;6.67;;;1.40;;
39772;SDS011;25451;51.960;6.250;2022-11-23T07:16:33;8.97;;;1.83;;
39772;SDS011;25451;51.960;6.250;2022-11-23T07:18:58;6.50;;;1.30;;
39772;SDS011;25451;51.960;6.250;2022-11-23T07:21:23;6.40;;;1.57;;
39772;SDS011;25451;51.960;6.250;2022-11-23T07:23:49;7.07;;;1.40;;
39772;SDS011;25451;51.960;6.250;2022-11-23T07:26:14;7.60;;;1.35;;
39772;SDS011;25451;51.960;6.250;2022-11-23T07:28:40;9.50;;;1.98;;
39772;SDS011;25451;51.960;6.250;2022-11-23T07:31:05;6.17;;;1.40;;
39772;SDS011;25451;51.960;6.250;2022-11-23T07:33:30;7.93;;;1.27;;
39772;SDS011;25451;51.960;6.250;2022-11-23T07:35:59;9.53;;;1.87;;
39772;SDS011;25451;51.960;6.250;2022-11-23T07:38:25;6.13;;;1.15;;
39772;SDS011;25451;51.960;6.250;2022-11-23T07:40:50;5.73;;;1.87;;
39772;SDS011;25451;51.960;6.250;2022-11-23T07:43:16;14.77;;;1.73;;
39772;SDS011;25451;51.960;6.250;2022-11-23T07:45:41;4.60;;;1.00;;
39772;SDS011;25451;51.960;6.250;2022-11-23T07:48:07;9.43;;;1.33;;
39772;SDS011;25451;51.960;6.250;2022-11-23T07:50:33;7.00;;;1.73;;
39772;SDS011;25451;51.960;6.250;2022-11-23T07:53:00;8.18;;;1.30;;
39772;SDS011;25451;51.960;6.250;2022-11-23T07:55:27;9.27;;;1.58;;
39772;SDS011;25451;51.960;6.250;2022-11-23T07:57:52;9.37;;;1.30;;
39772;SDS011;25451;51.960;6.250;2022-11-23T08:00:19;7.63;;;1.10;;
39772;SDS011;25451;51.960;6.250;2022-11-23T08:02:45;6.43;;;1.42;;
39772;SDS011;25451;51.960;6.250;2022-11-23T08:05:10;7.97;;;1.17;;
39772;SDS011;25451;51.960;6.250;2022-11-23T08:07:36;8.43;;;1.93;;
39772;SDS011;25451;51.960;6.250;2022-11-23T08:10:02;6.55;;;2.10;;
39772;SDS011;25451;51.960;6.250;2022-11-23T08:12:27;9.47;;;1.50;;
39772;SDS011;25451;51.960;6.250;2022-11-23T08:14:52;8.13;;;1.50;;
39772;SDS011;25451;51.960;6.250;2022-11-23T08:17:17;5.93;;;1.20;;
39772;SDS011;25451;51.960;6.250;2022-11-23T08:19:43;7.73;;;1.50;;
39772;SDS011;25451;51.960;6.250;2022-11-23T08:22:08;5.97;;;1.10;;
39772;SDS011;25451;51.960;6.250;2022-11-23T08:24:33;8.63;;;1.33;;
39772;SDS011;25451;51.960;6.250;2022-11-23T08:26:59;10.30;;;1.40;;
39772;SDS011;25451;51.960;6.250;2022-11-23T08:29:24;8.73;;;1.47;;
39772;SDS011;25451;51.960;6.250;2022-11-23T08:31:49;6.27;;;1.40;;
39772;SDS011;25451;51.960;6.250;2022-11-23T08:34:15;12.40;;;1.40;;
39772;SDS011;25451;51.960;6.250;2022-11-23T08:36:42;9.65;;;1.63;;
39772;SDS011;25451;51.960;6.250;2022-11-23T08:39:08;9.13;;;1.17;;
39772;SDS011;25451;51.960;6.250;2022-11-23T08:41:35;5.03;;;1.25;;
39772;SDS011;25451;51.960;6.250;2022-11-23T08:44:01;5.10;;;1.17;;
39772;SDS011;25451;51.960;6.250;2022-11-23T08:46:26;9.87;;;1.33;;
39772;SDS011;25451;51.960;6.250;2022-11-23T08:48:52;3.77;;;1.10;;
39772;SDS011;25451;51.960;6.250;2022-11-23T08:51:17;7.53;;;1.27;;
39772;SDS011;25451;51.960;6.250;2022-11-23T08:53:46;6.72;;;1.42;;
39772;SDS011;25451;51.960;6.250;2022-11-23T08:56:12;4.97;;;1.42;;
39772;SDS011;25451;51.960;6.250;2022-11-23T08:58:37;7.40;;;1.57;;
39772;SDS011;25451;51.960;6.250;2022-11-23T09:01:06;9.97;;;1.53;;
39772;SDS011;25451;51.960;6.250;2022-11-23T09:03:33;7.88;;;1.48;;
39772;SDS011;25451;51.960;6.250;2022-11-23T09:05:58;9.67;;;1.63;;
39772;SDS011;25451;51.960;6.250;2022-11-23T09:08:24;8.43;;;1.30;;
39772;SDS011;25451;51.960;6.250;2022-11-23T09:10:49;4.73;;;1.30;;
39772;SDS011;25451;51.960;6.250;2022-11-23T09:13:15;9.53;;;1.80;;
39772;SDS011;25451;51.960;6.250;2022-11-23T09:15:40;7.47;;;1.67;;
39772;SDS011;25451;51.960;6.250;2022-11-23T09:18:05;9.60;;;1.50;;
39772;SDS011;25451;51.960;6.250;2022-11-23T09:20:31;7.67;;;1.50;;
39772;SDS011;25451;51.960;6.250;2022-11-23T09:22:56;9.57;;;1.20;;
39772;SDS011;25451;51.960;6.250;2022-11-23T09:25:21;8.55;;;1.30;;
39772;SDS011;25451;51.960;6.250;2022-11-23T09:27:47;7.43;;;1.37;;
39772;SDS011;25451;51.960;6.250;2022-11-23T09:30:14;8.73;;;1.30;;
39772;SDS011;25451;51.960;6.250;2022-11-23T09:32:40;9.63;;;1.60;;
39772;SDS011;25451;51.960;6.250;2022-11-23T09:35:05;4.63;;;1.20;;
39772;SDS011;25451;51.960;6.250;2022-11-23T09:37:31;11.25;;;1.50;;
39772;SDS011;25451;51.960;6.250;2022-11-23T09:39:56;9.17;;;1.60;;
39772;SDS011;25451;51.960;6.250;2022-11-23T09:48:16;7.97;;;1.35;;
39772;SDS011;25451;51.960;6.250;2022-11-23T09:50:50;5.90;;;1.60;;
39772;SDS011;25451;51.960;6.250;2022-11-23T09:54:08;2.63;;;0.80;;
39772;SDS011;25451;51.960;6.250;2022-11-23T09:56:21;5.90;;;1.45;;
39772;SDS011;25451;51.960;6.250;2022-11-23T09:58:51;5.30;;;1.40;;
39772;SDS011;25451;51.960;6.250;2022-11-23T10:01:19;12.32;;;1.35;;
39772;SDS011;25451;51.960;6.250;2022-11-23T10:03:45;9.77;;;1.33;;
39772;SDS011;25451;51.960;6.250;2022-11-23T10:06:24;8.38;;;1.48;;
39772;SDS011;25451;51.960;6.250;2022-11-23T10:08:56;4.68;;;1.25;;
39772;SDS011;25451;51.960;6.250;2022-11-23T10:14:21;7.97;;;1.30;;
39772;SDS011;25451;51.960;6.250;2022-11-23T10:22:33;9.25;;;1.20;;
39772;SDS011;25451;51.960;6.250;2022-11-23T10:25:11;10.43;;;1.30;;
39772;SDS011;25451;51.960;6.250;2022-11-23T10:27:39;9.60;;;1.38;;
39772;SDS011;25451;51.960;6.250;2022-11-23T10:30:11;7.65;;;1.35;;
39772;SDS011;25451;51.960;6.250;2022-11-23T10:32:43;5.25;;;1.05;;
39772;SDS011;25451;51.960;6.250;2022-11-23T10:35:15;10.48;;;1.27;;
39772;SDS011;25451;51.960;6.250;2022-11-23T10:37:46;8.10;;;1.10;;
39772;SDS011;25451;51.960;6.250;2022-11-23T10:42:48;6.17;;;1.10;;
39772;SDS011;25451;51.960;6.250;2022-11-23T10:45:26;8.85;;;1.30;;
39772;SDS011;25451;51.960;6.250;2022-11-23T10:47:53;5.90;;;1.25;;
39772;SDS011;25451;51.960;6.250;2022-11-23T10:55:29;7.00;;;0.90;;
39772;SDS011;25451;51.960;6.250;2022-11-23T10:58:24;10.48;;;1.20;;
39772;SDS011;25451;51.960;6.250;2022-11-23T11:00:58;13.55;;;1.75;;
39772;SDS011;25451;51.960;6.250;2022-11-23T11:03:25;5.10;;;0.90;;
39772;SDS011;25451;51.960;6.250;2022-11-23T11:05:50;7.87;;;1.00;;
39772;SDS011;25451;51.960;6.250;2022-11-23T11:08:16;6.87;;;1.40;;
39772;SDS011;25451;51.960;6.250;2022-11-23T11:10:47;6.55;;;1.10;;
39772;SDS011;25451;51.960;6.250;2022-11-23T11:13:23;7.75;;;1.30;;
39772;SDS011;25451;51.960;6.250;2022-11-23T11:15:59;6.53;;;1.08;;
39772;SDS011;25451;51.960;6.250;2022-11-23T11:18:30;4.25;;;0.95;;
39772;SDS011;25451;51.960;6.250;2022-11-23T11:20:58;6.70;;;0.90;;
39772;SDS011;25451;51.960;6.250;2022-11-23T11:23:25;6.53;;;1.17;;
39772;SDS011;25451;51.960;6.250;2022-11-23T11:26:01;8.93;;;1.20;;
39772;SDS011;25451;51.960;6.250;2022-11-23T11:28:41;5.72;;;1.10;;
39772;SDS011;25451;51.960;6.250;2022-11-23T11:36:47;6.88;;;1.08;;
39772;SDS011;25451;51.960;6.250;2022-11-23T11:40:22;5.45;;;1.00;;
39772;SDS011;25451;51.960;6.250;2022-11-23T11:45:06;6.93;;;0.93;;
39772;SDS011;25451;51.960;6.250;2022-11-23T11:47:46;7.47;;;1.00;;
39772;SDS011;25451;51.960;6.250;2022-11-23T11:50:24;9.05;;;1.17;;
39772;SDS011;25451;51.960;6.250;2022-11-23T11:52:55;5.72;;;1.08;;
39772;SDS011;25451;51.960;6.250;2022-11-23T11:55:27;6.00;;;0.90;;
39772;SDS011;25451;51.960;6.250;2022-11-23T12:00:33;6.57;;;0.90;;
39772;SDS011;25451;51.960;6.250;2022-11-23T12:03:04;4.70;;;0.80;;
39772;SDS011;25451;51.960;6.250;2022-11-23T12:08:15;3.67;;;0.70;;
39772;SDS011;25451;51.960;6.250;2022-11-23T12:11:03;6.88;;;1.20;;
39772;SDS011;25451;51.960;6.250;2022-11-23T12:13:34;5.15;;;0.95;;
39772;SDS011;25451;51.960;6.250;2022-11-23T12:27:00;8.57;;;1.27;;
39772;SDS011;25451;51.960;6.250;2022-11-23T12:32:25;5.97;;;0.98;;
39772;SDS011;25451;51.960;6.250;2022-11-23T12:35:12;7.25;;;1.10;;
39772;SDS011;25451;51.960;6.250;2022-11-23T12:43:21;4.72;;;0.77;;
39772;SDS011;25451;51.960;6.250;2022-11-23T12:46:05;7.60;;;0.98;;
39772;SDS011;25451;51.960;6.250;2022-11-23T12:59:21;6.97;;;1.10;;
39772;SDS011;25451;51.960;6.250;2022-11-23T13:01:49;6.15;;;0.90;;
39772;SDS011;25451;51.960;6.250;2022-11-23T13:10:19;4.25;;;0.80;;
39772;SDS011;25451;51.960;6.250;2022-11-23T13:18:17;6.53;;;1.23;;
39772;SDS011;25451;51.960;6.250;2022-11-23T13:40:24;3.33;;;0.82;;
39772;SDS011;25451;51.960;6.250;2022-11-23T13:45:43;6.63;;;1.17;;
39772;SDS011;25451;51.960;6.250;2022-11-23T13:50:34;3.63;;;1.20;;
39772;SDS011;25451;51.960;6.250;2022-11-23T13:53:02;6.05;;;1.08;;
39772;SDS011;25451;51.960;6.250;2022-11-23T13:55:42;4.30;;;1.10;;
39772;SDS011;25451;51.960;6.250;2022-11-23T14:09:24;10.10;;;1.48;;
39772;SDS011;25451;51.960;6.250;2022-11-23T14:14:46;5.03;;;1.07;;
39772;SDS011;25451;51.960;6.250;2022-11-23T14:17:21;5.28;;;1.10;;
39772;SDS011;25451;51.960;6.250;2022-11-23T14:25:53;8.30;;;1.33;;
39772;SDS011;25451;51.960;6.250;2022-11-23T14:28:50;3.00;;;0.90;;
39772;SDS011;25451;51.960;6.250;2022-11-23T14:40:18;2.95;;;1.00;;
39772;SDS011;25451;51.960;6.250;2022-11-23T14:42:52;3.67;;;1.00;;
39772;SDS011;25451;51.960;6.250;2022-11-23T14:45:20;6.22;;;1.25;;
39772;SDS011;25451;51.960;6.250;2022-11-23T14:47:47;7.65;;;1.27;;
39772;SDS011;25451;51.960;6.250;2022-11-23T14:50:25;3.30;;;1.27;;
39772;SDS011;25451;51.960;6.250;2022-11-23T14:52:53;6.43;;;1.00;;
39772;SDS011;25451;51.960;6.250;2022-11-23T14:55:22;3.85;;;1.08;;
39772;SDS011;25451;51.960;6.250;2022-11-23T14:57:51;4.93;;;1.17;;
39772;SDS011;25451;51.960;6.250;2022-11-23T15:00:23;7.17;;;1.20;;
39772;SDS011;25451;51.960;6.250;2022-11-23T15:02:49;7.65;;;1.40;;
39772;SDS011;25451;51.960;6.250;2022-11-23T15:05:22;3.92;;;1.10;;
39772;SDS011;25451;51.960;6.250;2022-11-23T15:10:29;7.35;;;1.65;;
39772;SDS011;25451;51.960;6.250;2022-11-23T15:13:15;10.27;;;1.38;;
39772;SDS011;25451;51.960;6.250;2022-11-23T15:15:43;6.38;;;1.05;;
39772;SDS011;25451;51.960;6.250;2022-11-23T15:18:09;6.38;;;1.00;;
39772;SDS011;25451;51.960;6.250;2022-11-23T15:20:40;5.20;;;0.90;;
39772;SDS011;25451;51.960;6.250;2022-11-23T15:23:17;4.57;;;0.93;;
39772;SDS011;25451;51.960;6.250;2022-11-23T15:25:52;7.55;;;1.23;;
39772;SDS011;25451;51.960;6.250;2022-11-23T15:28:21;4.40;;;1.03;;
39772;SDS011;25451;51.960;6.250;2022-11-23T15:30:50;5.30;;;1.02;;
39772;SDS011;25451;51.960;6.250;2022-11-23T15:33:17;3.43;;;0.80;;
39772;SDS011;25451;51.960;6.250;2022-11-23T15:35:44;4.15;;;1.10;;
39772;SDS011;25451;51.960;6.250;2022-11-23T15:38:11;4.25;;;0.93;;
39772;SDS011;25451;51.960;6.250;2022-11-23T15:40:38;6.38;;;1.30;;
39772;SDS011;25451;51.960;6.250;2022-11-23T15:43:10;2.63;;;1.10;;
39772;SDS011;25451;51.960;6.250;2022-11-23T15:48:14;4.40;;;1.20;;
39772;SDS011;25451;51.960;6.250;2022-11-23T15:50:43;4.40;;;1.00;;
39772;SDS011;25451;51.960;6.250;2022-11-23T15:53:12;6.18;;;2.05;;
39772;SDS011;25451;51.960;6.250;2022-11-23T15:55:37;4.03;;;1.00;;
39772;SDS011;25451;51.960;6.250;2022-11-23T15:58:03;4.47;;;1.10;;
39772;SDS011;25451;51.960;6.250;2022-11-23T16:00:32;5.60;;;1.23;;
39772;SDS011;25451;51.960;6.250;2022-11-23T16:08:36;4.88;;;1.27;;
39772;SDS011;25451;51.960;6.250;2022-11-23T16:11:04;5.07;;;1.10;;
39772;SDS011;25451;51.960;6.250;2022-11-23T16:13:42;4.13;;;1.25;;
39772;SDS011;25451;51.960;6.250;2022-11-23T16:16:28;7.55;;;1.48;;
39772;SDS011;25451;51.960;6.250;2022-11-23T16:18:53;5.32;;;1.20;;
39772;SDS011;25451;51.960;6.250;2022-11-23T16:21:21;6.47;;;1.10;;
39772;SDS011;25451;51.960;6.250;2022-11-23T16:26:19;2.95;;;1.08;;
39772;SDS011;25451;51.960;6.250;2022-11-23T16:28:54;2.58;;;1.00;;
39772;SDS011;25451;51.960;6.250;2022-11-23T16:34:12;6.05;;;1.15;;
39772;SDS011;25451;51.960;6.250;2022-11-23T16:36:40;5.28;;;1.02;;
39772;SDS011;25451;51.960;6.250;2022-11-23T16:39:06;4.70;;;1.30;;
39772;SDS011;25451;51.960;6.250;2022-11-23T16:41:31;4.83;;;1.20;;
39772;SDS011;25451;51.960;6.250;2022-11-23T16:43:56;4.63;;;1.30;;
39772;SDS011;25451;51.960;6.250;2022-11-23T16:46:22;2.42;;;1.10;;
39772;SDS011;25451;51.960;6.250;2022-11-23T16:48:47;5.40;;;1.40;;
39772;SDS011;25451;51.960;6.250;2022-11-23T16:51:12;3.80;;;1.20;;
39772;SDS011;25451;51.960;6.250;2022-11-23T16:53:42;4.63;;;1.30;;
39772;SDS011;25451;51.960;6.250;2022-11-23T16:56:08;5.22;;;1.17;;
39772;SDS011;25451;51.960;6.250;2022-11-23T16:58:41;2.90;;;1.08;;
39772;SDS011;25451;51.960;6.250;2022-11-23T17:01:07;5.20;;;1.70;;
39772;SDS011;25451;51.960;6.250;2022-11-23T17:03:41;3.17;;;1.25;;
39772;SDS011;25451;51.960;6.250;2022-11-23T17:06:09;5.60;;;1.42;;
39772;SDS011;25451;51.960;6.250;2022-11-23T17:08:37;4.07;;;1.20;;
39772;SDS011;25451;51.960;6.250;2022-11-23T17:11:02;5.13;;;1.50;;
39772;SDS011;25451;51.960;6.250;2022-11-23T17:13:28;3.70;;;1.33;;
39772;SDS011;25451;51.960;6.250;2022-11-23T17:15:54;3.37;;;1.40;;
39772;SDS011;25451;51.960;6.250;2022-11-23T17:18:19;4.75;;;1.60;;
39772;SDS011;25451;51.960;6.250;2022-11-23T17:20:46;6.05;;;1.58;;
39772;SDS011;25451;51.960;6.250;2022-11-23T17:23:12;5.50;;;1.40;;
39772;SDS011;25451;51.960;6.250;2022-11-23T17:25:37;4.70;;;1.30;;